createdAt,value
2019-01-08T00:00:59.027Z,5.86
2019-01-08T00:03:26.772Z,5.83
2019-01-08T00:05:54.579Z,5.76
2019-01-08T00:08:22.297Z,5.75
2019-01-08T00:10:50.065Z,5.90
2019-01-08T00:13:18.896Z,5.71
2019-01-08T00:15:47.479Z,5.91
2019-01-08T00:18:15.255Z,5.74
2019-01-08T00:20:43.013Z,5.90
2019-01-08T00:23:10.818Z,5.87
2019-01-08T00:25:38.527Z,6.00
2019-01-08T00:28:06.297Z,5.98
2019-01-08T00:30:34.011Z,6.03
2019-01-08T00:33:03.447Z,6.02
2019-01-08T00:35:31.170Z,5.99
2019-01-08T00:37:58.922Z,5.91
2019-01-08T00:40:26.640Z,5.85
2019-01-08T00:42:55.501Z,5.89
2019-01-08T00:45:23.264Z,5.99
2019-01-08T00:47:52.272Z,5.94
2019-01-08T00:50:20.216Z,5.98
2019-01-08T00:52:47.969Z,6.08
2019-01-08T00:55:15.728Z,5.93
2019-01-08T00:57:43.490Z,5.94
2019-01-08T01:00:11.723Z,5.93
2019-01-08T01:02:39.491Z,6.01
2019-01-08T01:05:07.341Z,6.03
2019-01-08T01:07:35.130Z,6.03
2019-01-08T01:10:03.061Z,5.97
2019-01-08T01:12:30.799Z,5.97
2019-01-08T01:14:58.592Z,6.04
2019-01-08T01:17:26.335Z,5.80
2019-01-08T01:19:54.356Z,5.83
2019-01-08T01:22:22.104Z,5.83
2019-01-08T01:24:49.879Z,5.77
2019-01-08T01:27:17.953Z,5.71
2019-01-08T01:29:45.689Z,5.77
2019-01-08T01:32:13.450Z,5.75
2019-01-08T01:34:41.820Z,5.70
2019-01-08T01:37:09.584Z,5.91
2019-01-08T01:39:38.142Z,5.94
2019-01-08T01:42:05.906Z,5.89
2019-01-08T01:44:33.697Z,5.86
2019-01-08T01:47:01.642Z,5.98
2019-01-08T01:49:29.545Z,6.12
2019-01-08T01:51:58.062Z,6.14
2019-01-08T01:54:26.883Z,6.03
2019-01-08T01:56:54.638Z,6.14
2019-01-08T01:59:22.431Z,6.05
2019-01-08T02:01:50.186Z,6.06
2019-01-08T02:04:17.985Z,6.06
2019-01-08T02:06:45.723Z,6.12
2019-01-08T02:09:13.496Z,6.23
2019-01-08T02:11:41.221Z,6.00
2019-01-08T02:14:10.570Z,6.12
2019-01-08T02:16:38.539Z,6.21
2019-01-08T02:19:06.318Z,6.11
2019-01-08T02:21:34.039Z,6.26
2019-01-08T02:24:03.683Z,6.27
2019-01-08T02:26:31.743Z,6.15
2019-01-08T02:28:59.771Z,6.19
2019-01-08T02:31:27.565Z,6.32
2019-01-08T02:33:56.465Z,6.41
2019-01-08T02:36:25.657Z,6.38
2019-01-08T02:38:53.736Z,6.30
2019-01-08T02:41:22.960Z,6.16
2019-01-08T02:43:51.021Z,6.41
2019-01-08T02:46:18.804Z,6.55
2019-01-08T02:48:46.611Z,6.52
2019-01-08T02:51:14.377Z,6.53
2019-01-08T02:53:43.797Z,6.57
2019-01-08T02:56:11.676Z,6.55
2019-01-08T02:58:41.756Z,6.55
2019-01-08T03:01:09.587Z,6.58
2019-01-08T03:03:37.326Z,6.66
2019-01-08T03:06:05.129Z,6.69
2019-01-08T03:08:32.906Z,6.70
2019-01-08T03:11:00.655Z,6.69
2019-01-08T03:13:30.320Z,6.68
2019-01-08T03:15:58.114Z,6.74
2019-01-08T03:18:25.869Z,6.74
2019-01-08T03:20:54.370Z,6.87
2019-01-08T03:23:22.369Z,6.91
2019-01-08T03:25:50.128Z,6.89
2019-01-08T03:28:17.906Z,6.80
2019-01-08T03:30:45.771Z,6.87
2019-01-08T03:33:13.494Z,7.04
2019-01-08T03:35:41.454Z,6.96
2019-01-08T03:38:09.236Z,6.89
2019-01-08T03:40:37.112Z,6.93
2019-01-08T03:43:04.876Z,6.98
2019-01-08T03:45:32.894Z,6.89
2019-01-08T03:48:00.674Z,6.99
2019-01-08T03:50:28.406Z,7.01
2019-01-08T03:52:56.482Z,6.98
2019-01-08T03:55:24.226Z,6.87
2019-01-08T03:57:53.296Z,7.00
2019-01-08T04:00:21.051Z,6.93
2019-01-08T04:02:48.814Z,6.95
2019-01-08T04:05:18.780Z,7.01
2019-01-08T04:07:46.817Z,6.87
2019-01-08T04:10:14.568Z,6.90
2019-01-08T04:12:42.324Z,6.89
2019-01-08T04:15:10.264Z,6.80
2019-01-08T04:17:38.034Z,6.64
2019-01-08T04:20:05.750Z,6.61
2019-01-08T04:22:33.517Z,6.42
2019-01-08T04:25:01.236Z,6.39
2019-01-08T04:27:29.266Z,6.57
2019-01-08T04:29:57.089Z,6.59
2019-01-08T04:32:25.035Z,6.75
2019-01-08T04:34:52.864Z,6.72
2019-01-08T04:37:20.679Z,6.80
2019-01-08T04:39:48.447Z,6.84
2019-01-08T04:42:16.239Z,6.89
2019-01-08T04:44:43.971Z,6.84
2019-01-08T04:47:11.757Z,7.02
2019-01-08T04:49:39.497Z,6.95
2019-01-08T04:52:07.279Z,6.95
2019-01-08T04:54:35.181Z,6.98
2019-01-08T04:57:02.911Z,6.95
2019-01-08T04:59:30.735Z,6.89
2019-01-08T05:01:58.452Z,7.09
2019-01-08T05:04:26.205Z,7.09
2019-01-08T05:06:54.290Z,6.88
2019-01-08T05:09:22.068Z,6.89
2019-01-08T05:11:51.232Z,6.90
2019-01-08T05:14:19.018Z,6.77
2019-01-08T05:16:46.973Z,6.77
2019-01-08T05:19:15.054Z,6.62
2019-01-08T05:21:43.078Z,6.53
2019-01-08T05:24:11.076Z,6.52
2019-01-08T05:26:38.865Z,6.50
2019-01-08T05:29:06.624Z,6.54
2019-01-08T05:31:34.374Z,6.56
2019-01-08T05:34:02.354Z,6.65
2019-01-08T05:36:30.104Z,6.81
2019-01-08T05:38:59.099Z,6.72
2019-01-08T05:41:26.875Z,6.75
2019-01-08T05:43:54.655Z,6.82
2019-01-08T05:46:22.366Z,6.91
2019-01-08T05:48:50.148Z,6.91
2019-01-08T05:51:18.030Z,6.91
2019-01-08T05:53:46.144Z,6.76
2019-01-08T05:56:13.906Z,6.73
2019-01-08T05:58:41.714Z,6.68
2019-01-08T06:01:10.732Z,6.87
2019-01-08T06:03:38.503Z,6.86
2019-01-08T06:06:06.270Z,6.74
2019-01-08T06:08:36.008Z,6.64
2019-01-08T06:11:03.778Z,6.57
2019-01-08T06:13:31.535Z,6.59
2019-01-08T06:15:59.301Z,6.78
2019-01-08T06:18:27.094Z,6.77
2019-01-08T06:20:54.890Z,6.72
2019-01-08T06:23:22.640Z,6.83
2019-01-08T06:25:50.408Z,6.83
2019-01-08T06:28:18.148Z,6.68
2019-01-08T06:30:45.923Z,6.68
2019-01-08T06:33:13.709Z,6.76
2019-01-08T06:35:41.499Z,6.87
2019-01-08T06:38:10.047Z,6.85
2019-01-08T06:40:37.879Z,6.86
2019-01-08T06:43:06.425Z,6.77
2019-01-08T06:45:34.172Z,6.71
2019-01-08T06:48:01.913Z,6.66
2019-01-08T06:50:29.885Z,6.55
2019-01-08T06:52:57.649Z,6.54
2019-01-08T06:55:25.413Z,6.51
2019-01-08T06:57:55.639Z,6.56
2019-01-08T07:00:23.478Z,6.59
2019-01-08T07:02:51.219Z,6.62
2019-01-08T07:05:19.026Z,6.56
2019-01-08T07:07:47.819Z,6.61
2019-01-08T07:10:15.631Z,6.61
2019-01-08T07:12:43.420Z,6.59
2019-01-08T07:15:11.142Z,6.55
2019-01-08T07:17:38.916Z,6.61
2019-01-08T07:20:07.422Z,6.73
2019-01-08T07:22:35.182Z,6.80
2019-01-08T07:25:03.044Z,6.90
2019-01-08T07:27:30.798Z,6.91
2019-01-08T07:29:58.568Z,6.88
2019-01-08T07:32:27.512Z,6.92
2019-01-08T07:34:55.238Z,6.98
2019-01-08T07:37:22.990Z,6.93
2019-01-08T07:39:51.300Z,6.95
2019-01-08T07:42:19.256Z,6.95
2019-01-08T07:44:47.024Z,6.98
2019-01-08T07:47:14.775Z,7.04
2019-01-08T07:49:42.818Z,6.88
2019-01-08T07:52:11.004Z,6.92
2019-01-08T07:54:38.821Z,6.98
2019-01-08T07:57:06.742Z,6.90
2019-01-08T07:59:34.525Z,6.95
2019-01-08T08:02:02.752Z,6.95
2019-01-08T08:04:30.515Z,6.96
2019-01-08T08:06:58.461Z,6.98
2019-01-08T08:09:28.083Z,7.04
2019-01-08T08:11:56.649Z,7.02
2019-01-08T08:14:24.901Z,6.93
2019-01-08T08:16:53.217Z,6.94
2019-01-08T08:19:25.349Z,7.08
2019-01-08T08:21:53.887Z,7.09
2019-01-08T08:24:21.616Z,7.11
2019-01-08T08:26:49.643Z,7.05
2019-01-08T08:29:17.383Z,7.08
2019-01-08T08:31:47.495Z,7.09
2019-01-08T08:34:15.242Z,7.08
2019-01-08T08:36:44.114Z,7.05
2019-01-08T08:39:12.479Z,7.09
2019-01-08T08:41:42.501Z,7.06
2019-01-08T08:44:10.553Z,7.02
2019-01-08T08:46:38.359Z,7.16
2019-01-08T08:49:06.149Z,7.18
2019-01-08T08:51:35.157Z,7.14
2019-01-08T08:54:02.939Z,7.12
2019-01-08T08:56:30.701Z,6.94
2019-01-08T08:58:58.471Z,6.95
2019-01-08T09:01:26.192Z,6.95
2019-01-08T09:03:53.970Z,6.92
2019-01-08T09:06:21.749Z,6.95
2019-01-08T09:08:49.495Z,7.06
2019-01-08T09:11:17.287Z,7.19
2019-01-08T09:13:45.069Z,7.31
2019-01-08T09:16:12.842Z,7.30
2019-01-08T09:18:40.659Z,7.47
2019-01-08T09:21:08.462Z,7.67
2019-01-08T09:23:37.740Z,7.87
2019-01-08T09:26:05.488Z,8.01
2019-01-08T09:28:33.272Z,7.90
2019-01-08T09:31:01.028Z,7.92
2019-01-08T09:33:28.783Z,7.66
2019-01-08T09:35:56.885Z,7.71
2019-01-08T09:38:24.932Z,7.85
2019-01-08T09:40:52.671Z,7.80
2019-01-08T09:43:20.436Z,7.78
2019-01-08T09:45:49.282Z,7.67
2019-01-08T09:48:17.047Z,7.51
2019-01-08T09:50:44.815Z,7.48
2019-01-08T09:53:12.575Z,7.26
2019-01-08T09:55:40.353Z,7.17
2019-01-08T09:58:08.428Z,7.19
2019-01-08T10:00:36.195Z,7.30
2019-01-08T10:03:03.973Z,7.30
2019-01-08T10:05:31.805Z,7.32
2019-01-08T10:07:59.560Z,7.24
2019-01-08T10:10:27.345Z,7.33
2019-01-08T10:12:55.115Z,7.34
2019-01-08T10:15:22.984Z,7.49
2019-01-08T10:17:50.736Z,7.50
2019-01-08T10:20:18.534Z,7.44
2019-01-08T10:22:46.300Z,7.44
2019-01-08T10:25:14.190Z,7.42
2019-01-08T10:27:41.941Z,7.45
2019-01-08T10:30:10.206Z,7.43
2019-01-08T10:32:38.019Z,7.51
2019-01-08T10:35:06.374Z,7.61
2019-01-08T10:37:34.154Z,7.67
2019-01-08T10:40:01.978Z,7.82
2019-01-08T10:42:29.737Z,7.77
2019-01-08T10:44:57.551Z,7.73
2019-01-08T10:47:25.324Z,7.86
2019-01-08T10:49:53.120Z,8.24
2019-01-08T10:52:20.876Z,8.34
2019-01-08T10:54:48.674Z,8.52
2019-01-08T10:57:16.508Z,8.69
2019-01-08T10:59:44.284Z,8.45
2019-01-08T11:02:12.393Z,8.22
2019-01-08T11:04:40.182Z,7.91
2019-01-08T11:07:08.036Z,7.80
2019-01-08T11:09:35.826Z,7.72
2019-01-08T11:12:03.636Z,7.61
2019-01-08T11:14:31.372Z,7.62
2019-01-08T11:16:59.300Z,7.59
2019-01-08T11:19:27.060Z,7.49
2019-01-08T11:21:54.819Z,7.42
2019-01-08T11:24:22.551Z,7.38
2019-01-08T11:26:50.426Z,7.42
2019-01-08T11:29:18.202Z,7.32
2019-01-08T11:31:48.903Z,7.33
2019-01-08T11:34:15.648Z,7.32
2019-01-08T11:36:43.457Z,7.21
2019-01-08T11:39:11.225Z,7.05
2019-01-08T11:41:39.008Z,7.19
2019-01-08T11:44:06.812Z,7.39
2019-01-08T11:46:34.684Z,7.30
2019-01-08T11:49:02.773Z,7.38
2019-01-08T11:51:30.693Z,7.37
2019-01-08T11:53:58.462Z,7.33
2019-01-08T11:56:26.253Z,7.49
2019-01-08T11:58:53.995Z,7.46
2019-01-08T12:01:24.039Z,7.59
2019-01-08T12:03:52.157Z,7.59
2019-01-08T12:06:22.207Z,7.59
2019-01-08T12:08:49.933Z,7.39
2019-01-08T12:11:17.734Z,7.57
2019-01-08T12:13:45.503Z,7.59
2019-01-08T12:16:13.283Z,7.67
2019-01-08T12:18:41.078Z,7.80
2019-01-08T12:21:08.891Z,7.80
2019-01-08T12:23:36.773Z,7.81
2019-01-08T12:26:04.526Z,7.91
2019-01-08T12:28:32.325Z,7.88
2019-01-08T12:31:00.109Z,7.86
2019-01-08T12:33:27.926Z,7.94
2019-01-08T12:35:55.699Z,7.60
2019-01-08T12:38:23.486Z,7.62
2019-01-08T12:40:51.288Z,7.57
2019-01-08T12:43:20.149Z,7.68
2019-01-08T12:45:50.110Z,7.70
2019-01-08T12:48:17.893Z,7.74
2019-01-08T12:50:45.666Z,7.87
2019-01-08T12:53:13.444Z,7.81
2019-01-08T12:55:41.508Z,7.84
2019-01-08T12:58:09.288Z,7.91
2019-01-08T13:00:37.182Z,7.98
2019-01-08T13:03:05.030Z,7.88
2019-01-08T13:05:32.820Z,7.93
2019-01-08T13:08:00.620Z,8.04
2019-01-08T13:10:28.396Z,7.99
2019-01-08T13:12:56.156Z,8.03
2019-01-08T13:15:23.989Z,7.70
2019-01-08T13:17:51.781Z,7.87
2019-01-08T13:20:21.081Z,7.90
2019-01-08T13:22:48.908Z,7.96
2019-01-08T13:25:16.689Z,8.11
2019-01-08T13:27:44.462Z,8.19
2019-01-08T13:30:12.215Z,8.02
2019-01-08T13:32:40.748Z,7.96
2019-01-08T13:35:08.602Z,7.96
2019-01-08T13:37:36.364Z,7.88
2019-01-08T13:40:04.286Z,7.71
2019-01-08T13:42:32.078Z,7.81
2019-01-08T13:44:59.884Z,7.53
2019-01-08T13:47:27.680Z,7.42
2019-01-08T13:49:55.458Z,7.24
2019-01-08T13:52:23.234Z,7.33
2019-01-08T13:54:51.030Z,7.30
2019-01-08T13:57:21.356Z,7.11
2019-01-08T13:59:49.186Z,7.13
2019-01-08T14:02:16.984Z,7.10
2019-01-08T14:04:44.784Z,7.12
2019-01-08T14:07:13.193Z,7.03
2019-01-08T14:09:41.018Z,7.14
2019-01-08T14:12:08.766Z,7.24
2019-01-08T14:14:36.547Z,7.10
2019-01-08T14:17:04.311Z,7.22
2019-01-08T14:19:32.120Z,7.17
2019-01-08T14:21:59.886Z,7.07
2019-01-08T14:24:27.765Z,7.23
2019-01-08T14:26:55.564Z,7.11
2019-01-08T14:29:23.309Z,7.09
2019-01-08T14:31:51.099Z,7.02
2019-01-08T14:34:18.906Z,6.97
2019-01-08T14:36:46.652Z,6.86
2019-01-08T14:39:14.426Z,7.11
2019-01-08T14:41:42.185Z,7.27
2019-01-08T14:44:10.215Z,7.22
2019-01-08T14:46:38.349Z,7.25
2019-01-08T14:49:06.075Z,7.24
2019-01-08T14:51:33.853Z,7.23
2019-01-08T14:54:01.592Z,7.15
2019-01-08T14:56:29.417Z,7.28
2019-01-08T14:58:57.173Z,7.19
2019-01-08T15:01:24.961Z,7.08
2019-01-08T15:03:52.781Z,7.30
2019-01-08T15:06:20.638Z,7.31
2019-01-08T15:08:48.403Z,7.26
2019-01-08T15:11:16.200Z,7.37
2019-01-08T15:13:43.970Z,7.29
2019-01-08T15:16:11.777Z,7.22
2019-01-08T15:18:39.517Z,7.38
2019-01-08T15:21:07.341Z,7.38
2019-01-08T15:23:35.078Z,7.43
2019-01-08T15:26:02.905Z,7.46
2019-01-08T15:28:30.700Z,7.41
2019-01-08T15:30:58.503Z,7.45
2019-01-08T15:33:26.250Z,7.33
2019-01-08T15:35:54.082Z,7.22
2019-01-08T15:38:21.945Z,7.11
2019-01-08T15:40:49.779Z,7.31
2019-01-08T15:43:17.532Z,7.22
2019-01-08T15:45:45.288Z,7.20
2019-01-08T15:48:13.060Z,7.22
2019-01-08T15:50:40.800Z,7.08
2019-01-08T15:53:08.845Z,7.25
2019-01-08T15:55:36.632Z,7.22
2019-01-08T15:58:04.548Z,7.26
2019-01-08T16:00:32.283Z,7.36
2019-01-08T16:03:07.223Z,7.35
2019-01-08T16:05:29.740Z,7.34
2019-01-08T16:07:57.514Z,7.32
2019-01-08T16:10:25.333Z,7.27
2019-01-08T16:12:53.173Z,7.39
2019-01-08T16:15:20.895Z,7.34
2019-01-08T16:17:48.648Z,7.43
2019-01-08T16:20:16.709Z,7.46
2019-01-08T16:22:44.546Z,7.33
2019-01-08T16:25:12.363Z,7.39
2019-01-08T16:27:40.119Z,7.47
2019-01-08T16:30:07.947Z,7.39
2019-01-08T16:32:35.730Z,7.34
2019-01-08T16:35:03.911Z,7.43
2019-01-08T16:37:31.749Z,7.40
2019-01-08T16:39:59.587Z,7.34
2019-01-08T16:42:27.389Z,7.25
2019-01-08T16:44:55.129Z,7.15
2019-01-08T16:47:23.105Z,7.17
2019-01-08T16:49:50.872Z,7.13
2019-01-08T16:52:18.651Z,7.31
2019-01-08T16:55:01.856Z,7.34
2019-01-08T16:57:29.737Z,7.20
2019-01-08T16:59:57.514Z,7.32
2019-01-08T17:02:25.423Z,7.30
2019-01-08T17:04:53.207Z,7.34
2019-01-08T17:07:21.012Z,7.37
2019-01-08T17:09:48.826Z,7.32
2019-01-08T17:12:16.611Z,7.25
2019-01-08T17:15:10.514Z,7.07
2019-01-08T17:17:38.366Z,6.87
2019-01-08T17:20:07.062Z,6.99
2019-01-08T17:22:34.846Z,6.79
2019-01-08T17:25:03.339Z,6.94
2019-01-08T17:27:51.967Z,6.82
2019-01-08T17:30:19.730Z,6.76
2019-01-08T17:32:47.500Z,6.80
2019-01-08T17:35:15.329Z,6.61
2019-01-08T17:37:43.316Z,6.66
2019-01-08T17:40:11.102Z,6.70
2019-01-08T17:42:40.001Z,6.78
2019-01-08T17:45:35.341Z,6.77
2019-01-08T17:48:13.046Z,6.81
2019-01-08T17:50:41.294Z,6.53
2019-01-08T17:53:09.027Z,6.83
2019-01-08T17:55:38.852Z,6.65
2019-01-08T17:58:41.285Z,6.62
2019-01-08T18:01:25.284Z,6.50
2019-01-08T18:03:53.122Z,6.47
2019-01-08T18:06:20.936Z,6.53
2019-01-08T18:08:48.963Z,6.63
2019-01-08T18:11:16.768Z,6.66
2019-01-08T18:13:44.699Z,6.73
2019-01-08T18:16:12.448Z,6.77
2019-01-08T18:18:40.244Z,6.72
2019-01-08T18:21:08.005Z,6.61
2019-01-08T18:23:35.805Z,6.62
2019-01-08T18:26:03.572Z,6.70
2019-01-08T18:28:32.569Z,6.63
2019-01-08T18:31:00.613Z,6.62
2019-01-08T18:33:28.342Z,6.59
2019-01-08T18:35:56.183Z,6.63
2019-01-08T18:38:23.945Z,6.59
2019-01-08T18:40:51.743Z,6.57
2019-01-08T18:43:19.744Z,6.56
2019-01-08T18:45:47.891Z,6.53
2019-01-08T18:48:15.647Z,6.52
2019-01-08T18:50:43.461Z,6.39
2019-01-08T18:53:11.211Z,6.33
2019-01-08T18:55:39.074Z,6.31
2019-01-08T18:58:07.161Z,6.35
2019-01-08T19:00:34.933Z,6.37
2019-01-08T19:03:02.725Z,6.34
2019-01-08T19:05:30.565Z,6.17
2019-01-08T19:07:58.417Z,6.13
2019-01-08T19:10:26.279Z,6.23
2019-01-08T19:12:54.038Z,6.23
2019-01-08T19:15:21.890Z,6.11
2019-01-08T19:17:49.851Z,6.13
2019-01-08T19:20:17.617Z,6.20
2019-01-08T19:22:45.414Z,6.33
2019-01-08T19:25:13.619Z,6.23
2019-01-08T19:27:41.419Z,5.96
2019-01-08T19:30:09.741Z,5.74
2019-01-08T19:32:37.502Z,5.32
2019-01-08T19:35:05.263Z,4.99
2019-01-08T19:37:33.033Z,5.03
2019-01-08T19:40:00.808Z,5.13
2019-01-08T19:42:28.890Z,4.96
2019-01-08T19:44:56.681Z,5.13
2019-01-08T19:47:24.461Z,5.13
2019-01-08T19:49:52.223Z,5.09
2019-01-08T19:52:20.219Z,5.19
2019-01-08T19:54:47.975Z,5.22
2019-01-08T19:57:15.747Z,5.15
2019-01-08T19:59:43.525Z,5.07
2019-01-08T20:02:11.287Z,4.88
2019-01-08T20:04:39.070Z,4.91
2019-01-08T20:07:06.888Z,5.02
2019-01-08T20:09:34.652Z,5.19
2019-01-08T20:12:02.422Z,5.17
2019-01-08T20:14:31.592Z,5.21
2019-01-08T20:16:59.382Z,4.99
2019-01-08T20:19:27.661Z,5.02
2019-01-08T20:21:55.447Z,5.10
2019-01-08T20:24:23.422Z,5.04
2019-01-08T20:26:51.177Z,5.25
2019-01-08T20:29:18.923Z,5.20
2019-01-08T20:31:47.037Z,5.26
2019-01-08T20:34:14.807Z,5.25
2019-01-08T20:36:42.569Z,5.45
2019-01-08T20:39:14.381Z,5.48
2019-01-08T20:41:42.510Z,5.38
2019-01-08T20:44:10.267Z,5.52
2019-01-08T20:46:38.055Z,5.56
2019-01-08T20:49:05.893Z,5.52
2019-01-08T20:51:33.655Z,5.46
2019-01-08T20:54:01.402Z,5.54
2019-01-08T20:56:29.217Z,5.54
2019-01-08T20:58:57.001Z,5.40
2019-01-08T21:01:24.765Z,5.46
2019-01-08T21:03:52.561Z,5.39
2019-01-08T21:06:20.397Z,5.44
2019-01-08T21:08:48.194Z,5.38
2019-01-08T21:11:15.960Z,5.39
2019-01-08T21:13:43.740Z,5.47
2019-01-08T21:16:11.492Z,5.35
2019-01-08T21:18:40.664Z,5.34
2019-01-08T21:21:08.587Z,5.37
2019-01-08T21:23:36.458Z,5.36
2019-01-08T21:26:04.211Z,5.34
2019-01-08T21:28:31.984Z,5.43
2019-01-08T21:30:59.772Z,5.29
2019-01-08T21:33:27.558Z,5.40
2019-01-08T21:35:55.354Z,5.31
2019-01-08T21:38:23.278Z,5.25
2019-01-08T21:40:51.048Z,5.22
2019-01-08T21:43:18.841Z,4.96
2019-01-08T21:45:46.751Z,5.15
2019-01-08T21:48:14.759Z,5.09
2019-01-08T21:50:42.473Z,5.10
2019-01-08T21:53:10.630Z,5.05
2019-01-08T21:55:38.392Z,5.03
2019-01-08T21:58:06.079Z,4.84
2019-01-08T22:00:33.867Z,4.82
2019-01-08T22:03:01.639Z,4.89
2019-01-08T22:05:29.415Z,4.82
2019-01-08T22:07:57.176Z,4.83
2019-01-08T22:10:26.252Z,4.95
2019-01-08T22:12:54.005Z,4.94
2019-01-08T22:15:21.759Z,4.78
2019-01-08T22:17:49.492Z,4.72
2019-01-08T22:20:17.483Z,4.82
2019-01-08T22:22:52.534Z,4.68
2019-01-08T22:25:14.993Z,4.62
2019-01-08T22:27:42.759Z,4.65
2019-01-08T22:30:10.829Z,4.76
2019-01-08T22:32:38.564Z,4.69
2019-01-08T22:35:06.729Z,4.46
2019-01-08T22:37:34.487Z,4.24
2019-01-08T22:40:02.232Z,4.03
2019-01-08T22:42:30.105Z,4.10
2019-01-08T22:44:58.011Z,4.09
2019-01-08T22:47:25.743Z,4.11
2019-01-08T22:49:53.509Z,4.27
2019-01-08T22:52:21.291Z,4.26
2019-01-08T22:54:49.059Z,4.22
2019-01-08T22:57:16.801Z,4.24
2019-01-08T22:59:44.665Z,4.16
2019-01-08T23:02:13.741Z,4.06
2019-01-08T23:04:41.509Z,4.06
2019-01-08T23:07:09.300Z,4.03
2019-01-08T23:09:37.192Z,3.92
2019-01-08T23:12:05.231Z,4.02
2019-01-08T23:14:33.029Z,4.04
2019-01-08T23:17:00.937Z,3.99
2019-01-08T23:19:28.711Z,3.92
2019-01-08T23:21:56.610Z,3.97
2019-01-08T23:24:24.360Z,4.09
2019-01-08T23:26:52.250Z,4.00
2019-01-08T23:29:20.239Z,3.89
2019-01-08T23:31:50.329Z,3.95
2019-01-08T23:34:18.102Z,3.91
2019-01-08T23:36:46.029Z,3.85
2019-01-08T23:39:13.764Z,3.78
2019-01-08T23:41:41.986Z,3.71
2019-01-08T23:44:09.756Z,3.69
2019-01-08T23:46:37.678Z,3.79
2019-01-08T23:49:05.383Z,3.77
2019-01-08T23:51:33.386Z,3.70
2019-01-08T23:54:02.440Z,3.71
2019-01-08T23:56:35.078Z,3.66
2019-01-08T23:59:02.849Z,3.73
